Portada
METAR-TAF:

METAR-TAF

Aeropuertos :

Zanjan, Irán

latitud: 36-41N, longitud: 048-29E, altitud: 1663 m

Observación

El informe se hizo hace 8 horas y 40 minutos, a las 15:00 UTC
Viento 4 kt del sur-sureste
Temperatura 0°C
Humedad 74%
Presión 1014 hPa
Visibilidad 10 km o más
Escasas nubes a una altura de 2000 ft
Escasas nubes a una altura de 3000 ft, Cumulonimbus.
Nubes dispersas a una altura de 3500 ft
Cielo nuboso a una altura de 8000 ft

METAR: OITZ 241500Z 15004KT 9999 FEW020 FEW030CB SCT035 BKN080 00/M04 Q1014

Hora: 03:10 (23:40 UTC)


TAF: falta

Observaciones y pronósticos meteorológicos de más de 4000 aeropuertos (mensajes METAR y TAF).

Los puntos amarillos y rojos representan las estaciones disponibles.

Ponga el ratón en el punto deseado para ver el nombre de la estación.

Haga clic para ver las observaciones y los pronósticos meteorológicos.

Para cambiar el mapa : haga clic en los botones verdes con una cruz de color negro para hacer un zoom, en el botón verde con un guión para alejar o en las flechas verdes para mapas adyacentes.


METAR-TAF: